sensor_id;sensor_type;location;lat;lon;timestamp;P1;durP1;ratioP1;P2;durP2;ratioP2
48845;SDS011;34665;51.886;5.436;2024-02-26T00:00:38;7.63;;;3.70;;
48845;SDS011;34665;51.886;5.436;2024-02-26T00:03:04;7.33;;;3.10;;
48845;SDS011;34665;51.886;5.436;2024-02-26T00:05:29;7.65;;;3.15;;
48845;SDS011;34665;51.886;5.436;2024-02-26T00:07:56;10.10;;;3.47;;
48845;SDS011;34665;51.886;5.436;2024-02-26T00:10:22;7.10;;;3.67;;
48845;SDS011;34665;51.886;5.436;2024-02-26T00:12:47;6.00;;;4.10;;
48845;SDS011;34665;51.886;5.436;2024-02-26T00:15:12;10.23;;;4.20;;
48845;SDS011;34665;51.886;5.436;2024-02-26T00:17:38;7.55;;;4.45;;
48845;SDS011;34665;51.886;5.436;2024-02-26T00:20:04;7.97;;;4.70;;
48845;SDS011;34665;51.886;5.436;2024-02-26T00:22:34;7.13;;;4.23;;
48845;SDS011;34665;51.886;5.436;2024-02-26T00:24:59;10.10;;;3.97;;
48845;SDS011;34665;51.886;5.436;2024-02-26T00:27:25;8.13;;;4.57;;
48845;SDS011;34665;51.886;5.436;2024-02-26T00:29:50;5.90;;;3.80;;
48845;SDS011;34665;51.886;5.436;2024-02-26T00:32:16;10.17;;;4.03;;
48845;SDS011;34665;51.886;5.436;2024-02-26T00:34:41;7.55;;;3.65;;
48845;SDS011;34665;51.886;5.436;2024-02-26T00:37:07;9.03;;;3.90;;
48845;SDS011;34665;51.886;5.436;2024-02-26T00:39:32;7.13;;;4.38;;
48845;SDS011;34665;51.886;5.436;2024-02-26T00:41:58;6.20;;;3.63;;
48845;SDS011;34665;51.886;5.436;2024-02-26T00:44:23;12.63;;;3.97;;
48845;SDS011;34665;51.886;5.436;2024-02-26T00:46:49;11.57;;;3.80;;
48845;SDS011;34665;51.886;5.436;2024-02-26T00:49:14;4.60;;;3.23;;
48845;SDS011;34665;51.886;5.436;2024-02-26T00:51:40;7.72;;;4.30;;
48845;SDS011;34665;51.886;5.436;2024-02-26T00:54:05;10.23;;;3.00;;
48845;SDS011;34665;51.886;5.436;2024-02-26T00:56:31;5.90;;;3.33;;
48845;SDS011;34665;51.886;5.436;2024-02-26T00:58:56;7.68;;;3.72;;
48845;SDS011;34665;51.886;5.436;2024-02-26T01:01:22;6.73;;;3.60;;
48845;SDS011;34665;51.886;5.436;2024-02-26T01:03:47;9.67;;;4.03;;
48845;SDS011;34665;51.886;5.436;2024-02-26T01:06:13;6.72;;;3.75;;
48845;SDS011;34665;51.886;5.436;2024-02-26T01:08:38;6.80;;;3.80;;
48845;SDS011;34665;51.886;5.436;2024-02-26T01:11:04;6.35;;;3.40;;
48845;SDS011;34665;51.886;5.436;2024-02-26T01:13:30;5.03;;;3.60;;
48845;SDS011;34665;51.886;5.436;2024-02-26T01:15:56;9.35;;;3.65;;
48845;SDS011;34665;51.886;5.436;2024-02-26T01:18:21;7.90;;;4.20;;
48845;SDS011;34665;51.886;5.436;2024-02-26T01:20:47;7.10;;;4.13;;
48845;SDS011;34665;51.886;5.436;2024-02-26T01:23:13;7.13;;;3.70;;
48845;SDS011;34665;51.886;5.436;2024-02-26T01:25:38;5.90;;;2.73;;
48845;SDS011;34665;51.886;5.436;2024-02-26T01:28:04;6.82;;;4.30;;
48845;SDS011;34665;51.886;5.436;2024-02-26T01:30:30;7.60;;;3.40;;
48845;SDS011;34665;51.886;5.436;2024-02-26T01:32:56;4.00;;;3.05;;
48845;SDS011;34665;51.886;5.436;2024-02-26T01:35:21;6.17;;;4.00;;
48845;SDS011;34665;51.886;5.436;2024-02-26T01:37:47;5.97;;;3.45;;
48845;SDS011;34665;51.886;5.436;2024-02-26T01:40:12;5.97;;;3.60;;
48845;SDS011;34665;51.886;5.436;2024-02-26T01:42:38;4.95;;;3.58;;
48845;SDS011;34665;51.886;5.436;2024-02-26T01:45:03;5.15;;;3.95;;
48845;SDS011;34665;51.886;5.436;2024-02-26T01:47:29;5.53;;;3.58;;
48845;SDS011;34665;51.886;5.436;2024-02-26T01:49:55;7.22;;;4.35;;
48845;SDS011;34665;51.886;5.436;2024-02-26T01:52:21;9.30;;;4.68;;
48845;SDS011;34665;51.886;5.436;2024-02-26T01:54:47;11.70;;;4.85;;
48845;SDS011;34665;51.886;5.436;2024-02-26T01:57:13;6.63;;;4.30;;
48845;SDS011;34665;51.886;5.436;2024-02-26T01:59:39;8.13;;;4.43;;
48845;SDS011;34665;51.886;5.436;2024-02-26T02:02:05;5.00;;;3.42;;
48845;SDS011;34665;51.886;5.436;2024-02-26T02:04:31;5.67;;;3.57;;
48845;SDS011;34665;51.886;5.436;2024-02-26T02:06:57;7.30;;;3.77;;
48845;SDS011;34665;51.886;5.436;2024-02-26T02:09:23;5.18;;;3.53;;
48845;SDS011;34665;51.886;5.436;2024-02-26T02:11:49;8.98;;;4.00;;
48845;SDS011;34665;51.886;5.436;2024-02-26T02:14:15;9.17;;;3.50;;
48845;SDS011;34665;51.886;5.436;2024-02-26T02:16:40;7.75;;;3.85;;
48845;SDS011;34665;51.886;5.436;2024-02-26T02:19:06;8.20;;;3.73;;
48845;SDS011;34665;51.886;5.436;2024-02-26T02:21:31;4.33;;;2.83;;
48845;SDS011;34665;51.886;5.436;2024-02-26T02:23:57;8.60;;;3.60;;
48845;SDS011;34665;51.886;5.436;2024-02-26T02:26:22;5.17;;;3.30;;
48845;SDS011;34665;51.886;5.436;2024-02-26T02:28:48;6.37;;;3.80;;
48845;SDS011;34665;51.886;5.436;2024-02-26T02:31:14;6.88;;;3.83;;
48845;SDS011;34665;51.886;5.436;2024-02-26T02:33:40;6.47;;;3.67;;
48845;SDS011;34665;51.886;5.436;2024-02-26T02:36:05;6.80;;;4.03;;
48845;SDS011;34665;51.886;5.436;2024-02-26T02:38:36;9.80;;;3.77;;
48845;SDS011;34665;51.886;5.436;2024-02-26T02:41:02;4.65;;;2.83;;
48845;SDS011;34665;51.886;5.436;2024-02-26T02:43:28;7.37;;;3.73;;
48845;SDS011;34665;51.886;5.436;2024-02-26T02:45:53;7.30;;;4.20;;
48845;SDS011;34665;51.886;5.436;2024-02-26T02:48:19;6.20;;;4.03;;
48845;SDS011;34665;51.886;5.436;2024-02-26T02:50:44;7.33;;;4.57;;
48845;SDS011;34665;51.886;5.436;2024-02-26T02:53:09;5.57;;;3.80;;
48845;SDS011;34665;51.886;5.436;2024-02-26T02:55:35;7.47;;;4.70;;
48845;SDS011;34665;51.886;5.436;2024-02-26T02:58:00;7.57;;;3.80;;
48845;SDS011;34665;51.886;5.436;2024-02-26T03:00:26;8.93;;;4.05;;
48845;SDS011;34665;51.886;5.436;2024-02-26T03:02:52;6.63;;;3.80;;
48845;SDS011;34665;51.886;5.436;2024-02-26T03:05:17;6.40;;;3.67;;
48845;SDS011;34665;51.886;5.436;2024-02-26T03:07:43;8.15;;;4.00;;
48845;SDS011;34665;51.886;5.436;2024-02-26T03:10:08;6.57;;;3.93;;
48845;SDS011;34665;51.886;5.436;2024-02-26T03:12:34;8.03;;;4.17;;
48845;SDS011;34665;51.886;5.436;2024-02-26T03:14:59;7.20;;;4.40;;
48845;SDS011;34665;51.886;5.436;2024-02-26T03:17:31;8.23;;;4.47;;
48845;SDS011;34665;51.886;5.436;2024-02-26T03:19:57;9.00;;;4.90;;
48845;SDS011;34665;51.886;5.436;2024-02-26T03:22:22;6.97;;;4.50;;
48845;SDS011;34665;51.886;5.436;2024-02-26T03:24:48;9.10;;;4.20;;
48845;SDS011;34665;51.886;5.436;2024-02-26T03:27:14;7.07;;;4.18;;
48845;SDS011;34665;51.886;5.436;2024-02-26T03:29:39;7.25;;;4.13;;
48845;SDS011;34665;51.886;5.436;2024-02-26T03:32:05;6.87;;;4.73;;
48845;SDS011;34665;51.886;5.436;2024-02-26T03:34:31;5.73;;;4.27;;
48845;SDS011;34665;51.886;5.436;2024-02-26T03:36:57;8.32;;;3.63;;
48845;SDS011;34665;51.886;5.436;2024-02-26T03:39:22;6.57;;;4.32;;
48845;SDS011;34665;51.886;5.436;2024-02-26T03:41:48;7.50;;;4.57;;
48845;SDS011;34665;51.886;5.436;2024-02-26T03:44:13;6.57;;;4.20;;
48845;SDS011;34665;51.886;5.436;2024-02-26T03:46:39;7.13;;;4.05;;
48845;SDS011;34665;51.886;5.436;2024-02-26T03:49:04;11.83;;;4.33;;
48845;SDS011;34665;51.886;5.436;2024-02-26T03:51:30;7.80;;;4.20;;
48845;SDS011;34665;51.886;5.436;2024-02-26T03:53:57;7.85;;;4.18;;
48845;SDS011;34665;51.886;5.436;2024-02-26T03:56:23;6.20;;;3.63;;
48845;SDS011;34665;51.886;5.436;2024-02-26T03:58:49;7.75;;;4.25;;
48845;SDS011;34665;51.886;5.436;2024-02-26T04:01:15;6.47;;;4.10;;
48845;SDS011;34665;51.886;5.436;2024-02-26T04:03:41;8.10;;;3.72;;
48845;SDS011;34665;51.886;5.436;2024-02-26T04:06:10;5.97;;;3.70;;
48845;SDS011;34665;51.886;5.436;2024-02-26T04:08:36;6.87;;;4.10;;
48845;SDS011;34665;51.886;5.436;2024-02-26T04:11:02;8.15;;;4.18;;
48845;SDS011;34665;51.886;5.436;2024-02-26T04:13:33;6.18;;;3.92;;
48845;SDS011;34665;51.886;5.436;2024-02-26T04:15:58;9.93;;;4.10;;
48845;SDS011;34665;51.886;5.436;2024-02-26T04:18:24;8.25;;;4.60;;
48845;SDS011;34665;51.886;5.436;2024-02-26T04:20:50;6.43;;;4.30;;
48845;SDS011;34665;51.886;5.436;2024-02-26T04:23:16;8.90;;;4.65;;
48845;SDS011;34665;51.886;5.436;2024-02-26T04:25:42;9.57;;;5.33;;
48845;SDS011;34665;51.886;5.436;2024-02-26T04:28:08;10.18;;;5.03;;
48845;SDS011;34665;51.886;5.436;2024-02-26T04:30:33;7.50;;;4.43;;
48845;SDS011;34665;51.886;5.436;2024-02-26T04:32:58;8.70;;;5.20;;
48845;SDS011;34665;51.886;5.436;2024-02-26T04:35:23;8.77;;;5.17;;
48845;SDS011;34665;51.886;5.436;2024-02-26T04:37:50;8.38;;;4.40;;
48845;SDS011;34665;51.886;5.436;2024-02-26T04:40:15;7.73;;;4.73;;
48845;SDS011;34665;51.886;5.436;2024-02-26T04:42:41;10.88;;;5.00;;
48845;SDS011;34665;51.886;5.436;2024-02-26T04:45:06;7.45;;;4.35;;
48845;SDS011;34665;51.886;5.436;2024-02-26T04:47:33;8.35;;;5.00;;
48845;SDS011;34665;51.886;5.436;2024-02-26T04:49:58;8.73;;;5.23;;
48845;SDS011;34665;51.886;5.436;2024-02-26T04:52:25;9.27;;;5.53;;
48845;SDS011;34665;51.886;5.436;2024-02-26T04:54:51;10.40;;;5.07;;
48845;SDS011;34665;51.886;5.436;2024-02-26T04:57:17;8.38;;;4.82;;
48845;SDS011;34665;51.886;5.436;2024-02-26T04:59:44;6.72;;;4.45;;
48845;SDS011;34665;51.886;5.436;2024-02-26T05:02:11;6.25;;;3.83;;
48845;SDS011;34665;51.886;5.436;2024-02-26T05:04:36;9.73;;;5.60;;
48845;SDS011;34665;51.886;5.436;2024-02-26T05:07:01;10.70;;;5.75;;
48845;SDS011;34665;51.886;5.436;2024-02-26T05:09:27;7.47;;;4.63;;
48845;SDS011;34665;51.886;5.436;2024-02-26T05:11:52;9.37;;;4.60;;
48845;SDS011;34665;51.886;5.436;2024-02-26T05:14:18;9.25;;;5.13;;
48845;SDS011;34665;51.886;5.436;2024-02-26T05:16:43;11.60;;;6.70;;
48845;SDS011;34665;51.886;5.436;2024-02-26T05:19:09;10.13;;;5.40;;
48845;SDS011;34665;51.886;5.436;2024-02-26T05:21:35;10.27;;;5.73;;
48845;SDS011;34665;51.886;5.436;2024-02-26T05:24:00;9.30;;;5.50;;
48845;SDS011;34665;51.886;5.436;2024-02-26T05:26:26;6.53;;;3.95;;
48845;SDS011;34665;51.886;5.436;2024-02-26T05:28:52;9.82;;;5.32;;
48845;SDS011;34665;51.886;5.436;2024-02-26T05:31:17;10.00;;;4.95;;
48845;SDS011;34665;51.886;5.436;2024-02-26T05:33:43;8.35;;;4.60;;
48845;SDS011;34665;51.886;5.436;2024-02-26T05:36:09;11.00;;;4.87;;
48845;SDS011;34665;51.886;5.436;2024-02-26T05:38:35;10.50;;;5.22;;
48845;SDS011;34665;51.886;5.436;2024-02-26T05:41:00;9.45;;;5.30;;
48845;SDS011;34665;51.886;5.436;2024-02-26T05:43:26;5.47;;;3.55;;
48845;SDS011;34665;51.886;5.436;2024-02-26T05:45:53;8.00;;;4.25;;
48845;SDS011;34665;51.886;5.436;2024-02-26T05:48:18;12.40;;;6.03;;
48845;SDS011;34665;51.886;5.436;2024-02-26T05:50:47;13.68;;;5.38;;
48845;SDS011;34665;51.886;5.436;2024-02-26T05:53:13;9.52;;;6.10;;
48845;SDS011;34665;51.886;5.436;2024-02-26T05:55:38;9.80;;;4.70;;
48845;SDS011;34665;51.886;5.436;2024-02-26T05:58:04;10.00;;;6.18;;
48845;SDS011;34665;51.886;5.436;2024-02-26T06:00:29;9.90;;;5.47;;
48845;SDS011;34665;51.886;5.436;2024-02-26T06:02:55;13.82;;;6.30;;
48845;SDS011;34665;51.886;5.436;2024-02-26T06:05:20;9.33;;;5.17;;
48845;SDS011;34665;51.886;5.436;2024-02-26T06:07:46;8.73;;;4.88;;
48845;SDS011;34665;51.886;5.436;2024-02-26T06:10:11;11.13;;;6.00;;
48845;SDS011;34665;51.886;5.436;2024-02-26T06:12:39;11.07;;;5.63;;
48845;SDS011;34665;51.886;5.436;2024-02-26T06:15:05;10.15;;;5.63;;
48845;SDS011;34665;51.886;5.436;2024-02-26T06:17:31;8.93;;;5.45;;
48845;SDS011;34665;51.886;5.436;2024-02-26T06:19:56;8.40;;;4.22;;
48845;SDS011;34665;51.886;5.436;2024-02-26T06:22:22;10.90;;;6.13;;
48845;SDS011;34665;51.886;5.436;2024-02-26T06:24:47;10.07;;;5.53;;
48845;SDS011;34665;51.886;5.436;2024-02-26T06:27:13;8.15;;;3.90;;
48845;SDS011;34665;51.886;5.436;2024-02-26T06:29:39;6.97;;;4.40;;
48845;SDS011;34665;51.886;5.436;2024-02-26T06:32:05;11.23;;;5.20;;
48845;SDS011;34665;51.886;5.436;2024-02-26T06:34:31;9.93;;;5.43;;
48845;SDS011;34665;51.886;5.436;2024-02-26T06:36:56;8.40;;;4.90;;
48845;SDS011;34665;51.886;5.436;2024-02-26T06:39:21;10.33;;;5.83;;
48845;SDS011;34665;51.886;5.436;2024-02-26T06:41:47;8.88;;;5.20;;
48845;SDS011;34665;51.886;5.436;2024-02-26T06:44:13;13.73;;;5.43;;
48845;SDS011;34665;51.886;5.436;2024-02-26T06:46:38;9.10;;;5.07;;
48845;SDS011;34665;51.886;5.436;2024-02-26T06:49:04;9.90;;;5.65;;
48845;SDS011;34665;51.886;5.436;2024-02-26T06:53:56;8.83;;;5.43;;
48845;SDS011;34665;51.886;5.436;2024-02-26T06:56:22;9.70;;;5.60;;
48845;SDS011;34665;51.886;5.436;2024-02-26T06:58:47;10.00;;;4.53;;
48845;SDS011;34665;51.886;5.436;2024-02-26T07:01:13;7.78;;;4.70;;
48845;SDS011;34665;51.886;5.436;2024-02-26T07:03:40;9.00;;;4.60;;
48845;SDS011;34665;51.886;5.436;2024-02-26T07:06:05;8.65;;;4.97;;
48845;SDS011;34665;51.886;5.436;2024-02-26T07:08:31;9.95;;;5.78;;
48845;SDS011;34665;51.886;5.436;2024-02-26T07:10:56;11.10;;;6.37;;
48845;SDS011;34665;51.886;5.436;2024-02-26T07:13:21;12.87;;;5.87;;
48845;SDS011;34665;51.886;5.436;2024-02-26T07:15:47;10.23;;;5.57;;
48845;SDS011;34665;51.886;5.436;2024-02-26T07:18:13;9.77;;;5.20;;
48845;SDS011;34665;51.886;5.436;2024-02-26T07:20:38;14.60;;;7.75;;
48845;SDS011;34665;51.886;5.436;2024-02-26T07:23:03;11.27;;;6.43;;
48845;SDS011;34665;51.886;5.436;2024-02-26T07:25:29;12.63;;;6.70;;
48845;SDS011;34665;51.886;5.436;2024-02-26T07:27:55;13.80;;;7.05;;
48845;SDS011;34665;51.886;5.436;2024-02-26T07:30:20;10.80;;;5.93;;
48845;SDS011;34665;51.886;5.436;2024-02-26T07:32:46;12.57;;;6.40;;
48845;SDS011;34665;51.886;5.436;2024-02-26T07:35:11;9.23;;;5.67;;
48845;SDS011;34665;51.886;5.436;2024-02-26T07:37:37;17.27;;;9.80;;
48845;SDS011;34665;51.886;5.436;2024-02-26T07:40:03;17.00;;;8.82;;
48845;SDS011;34665;51.886;5.436;2024-02-26T07:42:28;14.52;;;7.90;;
48845;SDS011;34665;51.886;5.436;2024-02-26T07:44:54;24.00;;;8.90;;
48845;SDS011;34665;51.886;5.436;2024-02-26T07:47:20;18.83;;;9.17;;
48845;SDS011;34665;51.886;5.436;2024-02-26T07:49:46;14.50;;;7.80;;
48845;SDS011;34665;51.886;5.436;2024-02-26T07:52:11;15.80;;;7.50;;
48845;SDS011;34665;51.886;5.436;2024-02-26T07:54:37;15.00;;;8.67;;
48845;SDS011;34665;51.886;5.436;2024-02-26T07:57:02;16.80;;;8.20;;
48845;SDS011;34665;51.886;5.436;2024-02-26T07:59:31;18.25;;;8.43;;
48845;SDS011;34665;51.886;5.436;2024-02-26T08:01:57;17.42;;;9.13;;
48845;SDS011;34665;51.886;5.436;2024-02-26T08:04:22;14.33;;;7.03;;
48845;SDS011;34665;51.886;5.436;2024-02-26T08:06:47;16.70;;;8.80;;
48845;SDS011;34665;51.886;5.436;2024-02-26T08:09:13;21.77;;;10.35;;
48845;SDS011;34665;51.886;5.436;2024-02-26T08:11:38;16.27;;;9.20;;
48845;SDS011;34665;51.886;5.436;2024-02-26T08:14:04;18.93;;;10.20;;
48845;SDS011;34665;51.886;5.436;2024-02-26T08:16:29;23.17;;;9.85;;
48845;SDS011;34665;51.886;5.436;2024-02-26T08:18:55;23.90;;;11.70;;
48845;SDS011;34665;51.886;5.436;2024-02-26T08:21:20;23.37;;;10.63;;
48845;SDS011;34665;51.886;5.436;2024-02-26T08:23:45;16.83;;;8.63;;
48845;SDS011;34665;51.886;5.436;2024-02-26T08:26:10;20.10;;;10.67;;
48845;SDS011;34665;51.886;5.436;2024-02-26T08:28:37;20.98;;;10.40;;
48845;SDS011;34665;51.886;5.436;2024-02-26T08:31:02;17.27;;;8.00;;
48845;SDS011;34665;51.886;5.436;2024-02-26T08:33:28;23.83;;;10.73;;
48845;SDS011;34665;51.886;5.436;2024-02-26T08:35:53;25.80;;;11.37;;
48845;SDS011;34665;51.886;5.436;2024-02-26T08:38:19;18.57;;;8.23;;
48845;SDS011;34665;51.886;5.436;2024-02-26T08:40:44;24.50;;;10.07;;
48845;SDS011;34665;51.886;5.436;2024-02-26T08:43:10;27.00;;;10.47;;
48845;SDS011;34665;51.886;5.436;2024-02-26T08:45:35;27.35;;;12.23;;
48845;SDS011;34665;51.886;5.436;2024-02-26T08:48:01;27.83;;;13.10;;
48845;SDS011;34665;51.886;5.436;2024-02-26T08:50:26;25.40;;;10.47;;
48845;SDS011;34665;51.886;5.436;2024-02-26T08:52:52;27.10;;;11.23;;
48845;SDS011;34665;51.886;5.436;2024-02-26T08:55:18;23.05;;;9.50;;
48845;SDS011;34665;51.886;5.436;2024-02-26T08:57:44;30.10;;;12.57;;
48845;SDS011;34665;51.886;5.436;2024-02-26T09:00:09;26.13;;;11.93;;
48845;SDS011;34665;51.886;5.436;2024-02-26T09:02:35;32.85;;;14.90;;
48845;SDS011;34665;51.886;5.436;2024-02-26T09:05:00;28.13;;;12.73;;
48845;SDS011;34665;51.886;5.436;2024-02-26T09:07:26;33.15;;;14.10;;
48845;SDS011;34665;51.886;5.436;2024-02-26T09:09:51;30.17;;;14.10;;
48845;SDS011;34665;51.886;5.436;2024-02-26T09:12:17;32.58;;;11.95;;
48845;SDS011;34665;51.886;5.436;2024-02-26T09:14:42;21.27;;;9.97;;
48845;SDS011;34665;51.886;5.436;2024-02-26T09:17:08;23.40;;;10.33;;
48845;SDS011;34665;51.886;5.436;2024-02-26T09:19:33;29.05;;;12.20;;
48845;SDS011;34665;51.886;5.436;2024-02-26T09:21:59;28.77;;;12.77;;
48845;SDS011;34665;51.886;5.436;2024-02-26T09:24:25;30.92;;;13.48;;
48845;SDS011;34665;51.886;5.436;2024-02-26T09:26:50;31.87;;;12.53;;
48845;SDS011;34665;51.886;5.436;2024-02-26T09:29:15;27.33;;;12.03;;
48845;SDS011;34665;51.886;5.436;2024-02-26T09:31:41;25.10;;;9.88;;
48845;SDS011;34665;51.886;5.436;2024-02-26T09:34:07;33.73;;;14.27;;
48845;SDS011;34665;51.886;5.436;2024-02-26T09:36:33;32.45;;;13.35;;
48845;SDS011;34665;51.886;5.436;2024-02-26T09:38:59;27.98;;;12.32;;
48845;SDS011;34665;51.886;5.436;2024-02-26T09:41:24;29.55;;;11.05;;
48845;SDS011;34665;51.886;5.436;2024-02-26T09:43:53;17.75;;;8.85;;
48845;SDS011;34665;51.886;5.436;2024-02-26T09:46:20;23.50;;;11.00;;
48845;SDS011;34665;51.886;5.436;2024-02-26T09:48:46;23.93;;;11.03;;
48845;SDS011;34665;51.886;5.436;2024-02-26T09:51:12;24.17;;;11.45;;
48845;SDS011;34665;51.886;5.436;2024-02-26T09:53:39;24.33;;;9.88;;
48845;SDS011;34665;51.886;5.436;2024-02-26T09:56:08;22.73;;;11.30;;
48845;SDS011;34665;51.886;5.436;2024-02-26T09:58:34;23.60;;;11.65;;
48845;SDS011;34665;51.886;5.436;2024-02-26T10:01:02;22.25;;;10.50;;
48845;SDS011;34665;51.886;5.436;2024-02-26T10:03:28;22.58;;;11.15;;
48845;SDS011;34665;51.886;5.436;2024-02-26T10:05:54;24.30;;;10.73;;
48845;SDS011;34665;51.886;5.436;2024-02-26T10:08:21;18.30;;;8.37;;
48845;SDS011;34665;51.886;5.436;2024-02-26T10:10:47;27.90;;;12.00;;
48845;SDS011;34665;51.886;5.436;2024-02-26T10:13:13;25.85;;;10.63;;
48845;SDS011;34665;51.886;5.436;2024-02-26T10:15:39;23.42;;;10.82;;
48845;SDS011;34665;51.886;5.436;2024-02-26T10:18:05;21.37;;;10.27;;
48845;SDS011;34665;51.886;5.436;2024-02-26T10:20:31;22.73;;;10.77;;
48845;SDS011;34665;51.886;5.436;2024-02-26T10:22:57;22.42;;;10.40;;
48845;SDS011;34665;51.886;5.436;2024-02-26T10:25:22;16.42;;;7.53;;
48845;SDS011;34665;51.886;5.436;2024-02-26T10:27:48;21.10;;;9.73;;
48845;SDS011;34665;51.886;5.436;2024-02-26T10:30:18;20.27;;;10.43;;
48845;SDS011;34665;51.886;5.436;2024-02-26T10:32:44;15.23;;;8.30;;
48845;SDS011;34665;51.886;5.436;2024-02-26T10:35:12;21.52;;;11.70;;
48845;SDS011;34665;51.886;5.436;2024-02-26T10:37:37;22.17;;;9.40;;
48845;SDS011;34665;51.886;5.436;2024-02-26T10:40:03;22.43;;;11.13;;
48845;SDS011;34665;51.886;5.436;2024-02-26T10:42:30;15.55;;;8.35;;
48845;SDS011;34665;51.886;5.436;2024-02-26T10:44:57;20.85;;;10.02;;
48845;SDS011;34665;51.886;5.436;2024-02-26T10:47:23;23.38;;;12.32;;
48845;SDS011;34665;51.886;5.436;2024-02-26T10:49:49;17.13;;;9.10;;
48845;SDS011;34665;51.886;5.436;2024-02-26T10:52:15;22.98;;;10.88;;
48845;SDS011;34665;51.886;5.436;2024-02-26T10:54:45;22.98;;;9.57;;
48845;SDS011;34665;51.886;5.436;2024-02-26T10:57:13;20.65;;;9.85;;
48845;SDS011;34665;51.886;5.436;2024-02-26T10:59:38;16.60;;;8.90;;
48845;SDS011;34665;51.886;5.436;2024-02-26T11:02:04;23.55;;;11.40;;
48845;SDS011;34665;51.886;5.436;2024-02-26T11:04:30;18.38;;;8.88;;
48845;SDS011;34665;51.886;5.436;2024-02-26T11:06:56;21.88;;;10.20;;
48845;SDS011;34665;51.886;5.436;2024-02-26T11:09:22;17.77;;;9.18;;
48845;SDS011;34665;51.886;5.436;2024-02-26T11:11:48;20.03;;;10.50;;
48845;SDS011;34665;51.886;5.436;2024-02-26T11:14:13;23.77;;;11.70;;
48845;SDS011;34665;51.886;5.436;2024-02-26T11:16:39;19.97;;;10.60;;
48845;SDS011;34665;51.886;5.436;2024-02-26T11:19:06;21.15;;;9.95;;
48845;SDS011;34665;51.886;5.436;2024-02-26T11:24:05;14.20;;;8.13;;
48845;SDS011;34665;51.886;5.436;2024-02-26T11:26:33;16.85;;;9.27;;
48845;SDS011;34665;51.886;5.436;2024-02-26T11:28:59;20.73;;;10.32;;
48845;SDS011;34665;51.886;5.436;2024-02-26T11:31:25;23.17;;;11.43;;
48845;SDS011;34665;51.886;5.436;2024-02-26T11:33:53;19.77;;;10.77;;
48845;SDS011;34665;51.886;5.436;2024-02-26T11:36:19;20.92;;;9.68;;
48845;SDS011;34665;51.886;5.436;2024-02-26T11:38:44;14.60;;;6.65;;
48845;SDS011;34665;51.886;5.436;2024-02-26T11:41:15;12.70;;;6.67;;
48845;SDS011;34665;51.886;5.436;2024-02-26T11:43:53;18.77;;;9.73;;
48845;SDS011;34665;51.886;5.436;2024-02-26T11:46:25;14.93;;;8.70;;
48845;SDS011;34665;51.886;5.436;2024-02-26T11:48:54;12.73;;;6.93;;
48845;SDS011;34665;51.886;5.436;2024-02-26T11:51:24;18.30;;;9.57;;
48845;SDS011;34665;51.886;5.436;2024-02-26T11:53:50;22.23;;;10.60;;
48845;SDS011;34665;51.886;5.436;2024-02-26T11:59:08;16.87;;;9.77;;
48845;SDS011;34665;51.886;5.436;2024-02-26T12:01:44;17.92;;;8.25;;
48845;SDS011;34665;51.886;5.436;2024-02-26T12:07:10;17.80;;;9.20;;
48845;SDS011;34665;51.886;5.436;2024-02-26T12:09:38;20.70;;;10.33;;
48845;SDS011;34665;51.886;5.436;2024-02-26T12:12:04;16.60;;;8.25;;
48845;SDS011;34665;51.886;5.436;2024-02-26T12:14:32;22.63;;;11.70;;
48845;SDS011;34665;51.886;5.436;2024-02-26T12:16:58;19.33;;;10.20;;
48845;SDS011;34665;51.886;5.436;2024-02-26T12:19:24;20.92;;;11.50;;
48845;SDS011;34665;51.886;5.436;2024-02-26T12:21:52;20.10;;;10.03;;
48845;SDS011;34665;51.886;5.436;2024-02-26T12:24:21;19.43;;;9.87;;
48845;SDS011;34665;51.886;5.436;2024-02-26T12:26:46;18.58;;;9.77;;
48845;SDS011;34665;51.886;5.436;2024-02-26T12:29:12;19.67;;;9.90;;
48845;SDS011;34665;51.886;5.436;2024-02-26T12:31:37;12.60;;;6.97;;
48845;SDS011;34665;51.886;5.436;2024-02-26T12:34:04;19.50;;;9.80;;
48845;SDS011;34665;51.886;5.436;2024-02-26T12:36:30;20.50;;;10.48;;
48845;SDS011;34665;51.886;5.436;2024-02-26T12:38:55;16.97;;;8.83;;
48845;SDS011;34665;51.886;5.436;2024-02-26T12:41:21;15.63;;;8.27;;
48845;SDS011;34665;51.886;5.436;2024-02-26T12:43:47;13.10;;;5.20;;
48845;SDS011;34665;51.886;5.436;2024-02-26T12:46:13;13.90;;;6.37;;
48845;SDS011;34665;51.886;5.436;2024-02-26T12:48:41;17.10;;;7.90;;
48845;SDS011;34665;51.886;5.436;2024-02-26T12:51:07;14.55;;;6.15;;
48845;SDS011;34665;51.886;5.436;2024-02-26T12:53:32;11.33;;;5.80;;
48845;SDS011;34665;51.886;5.436;2024-02-26T12:55:58;15.27;;;7.40;;
48845;SDS011;34665;51.886;5.436;2024-02-26T12:58:23;15.80;;;8.37;;
48845;SDS011;34665;51.886;5.436;2024-02-26T13:00:54;14.10;;;6.03;;
48845;SDS011;34665;51.886;5.436;2024-02-26T13:03:20;11.85;;;5.22;;
48845;SDS011;34665;51.886;5.436;2024-02-26T13:05:46;16.05;;;7.10;;
48845;SDS011;34665;51.886;5.436;2024-02-26T13:08:18;16.23;;;8.55;;
48845;SDS011;34665;51.886;5.436;2024-02-26T13:10:45;16.63;;;7.75;;
48845;SDS011;34665;51.886;5.436;2024-02-26T13:15:37;14.77;;;6.87;;
48845;SDS011;34665;51.886;5.436;2024-02-26T13:18:15;10.83;;;6.07;;
48845;SDS011;34665;51.886;5.436;2024-02-26T13:20:40;11.87;;;6.17;;
48845;SDS011;34665;51.886;5.436;2024-02-26T13:23:06;15.20;;;8.32;;
48845;SDS011;34665;51.886;5.436;2024-02-26T13:25:32;14.95;;;5.82;;
48845;SDS011;34665;51.886;5.436;2024-02-26T13:28:14;12.07;;;5.75;;
48845;SDS011;34665;51.886;5.436;2024-02-26T13:30:41;16.40;;;8.47;;
48845;SDS011;34665;51.886;5.436;2024-02-26T13:33:07;12.17;;;6.27;;
48845;SDS011;34665;51.886;5.436;2024-02-26T13:35:32;11.20;;;5.55;;
48845;SDS011;34665;51.886;5.436;2024-02-26T13:38:00;12.33;;;5.93;;
48845;SDS011;34665;51.886;5.436;2024-02-26T13:40:26;15.27;;;7.43;;
48845;SDS011;34665;51.886;5.436;2024-02-26T13:42:51;15.03;;;6.40;;
48845;SDS011;34665;51.886;5.436;2024-02-26T13:45:18;10.30;;;5.13;;
48845;SDS011;34665;51.886;5.436;2024-02-26T13:47:43;15.70;;;7.90;;
48845;SDS011;34665;51.886;5.436;2024-02-26T13:52:35;12.35;;;6.35;;
48845;SDS011;34665;51.886;5.436;2024-02-26T13:55:00;19.77;;;7.50;;
48845;SDS011;34665;51.886;5.436;2024-02-26T13:57:26;13.83;;;7.57;;
48845;SDS011;34665;51.886;5.436;2024-02-26T13:59:52;13.40;;;7.15;;
48845;SDS011;34665;51.886;5.436;2024-02-26T14:02:17;13.63;;;7.67;;
48845;SDS011;34665;51.886;5.436;2024-02-26T14:04:43;11.23;;;6.15;;
48845;SDS011;34665;51.886;5.436;2024-02-26T14:07:08;17.90;;;7.43;;
48845;SDS011;34665;51.886;5.436;2024-02-26T14:09:33;12.50;;;6.57;;
48845;SDS011;34665;51.886;5.436;2024-02-26T14:11:59;16.60;;;8.10;;
48845;SDS011;34665;51.886;5.436;2024-02-26T14:14:27;14.07;;;6.50;;
48845;SDS011;34665;51.886;5.436;2024-02-26T14:16:53;13.53;;;7.43;;
48845;SDS011;34665;51.886;5.436;2024-02-26T14:19:18;15.07;;;7.77;;
48845;SDS011;34665;51.886;5.436;2024-02-26T14:21:43;17.63;;;6.90;;
48845;SDS011;34665;51.886;5.436;2024-02-26T14:24:08;11.90;;;5.93;;
48845;SDS011;34665;51.886;5.436;2024-02-26T14:26:33;14.80;;;6.30;;
48845;SDS011;34665;51.886;5.436;2024-02-26T14:28:59;12.77;;;6.50;;
48845;SDS011;34665;51.886;5.436;2024-02-26T14:31:24;14.40;;;6.73;;
48845;SDS011;34665;51.886;5.436;2024-02-26T14:33:51;13.98;;;7.03;;
48845;SDS011;34665;51.886;5.436;2024-02-26T14:36:18;12.83;;;6.73;;
48845;SDS011;34665;51.886;5.436;2024-02-26T14:38:44;19.13;;;9.25;;
48845;SDS011;34665;51.886;5.436;2024-02-26T14:41:10;13.00;;;5.97;;
48845;SDS011;34665;51.886;5.436;2024-02-26T14:43:35;15.70;;;7.28;;
48845;SDS011;34665;51.886;5.436;2024-02-26T14:46:01;16.47;;;7.77;;